createdAt,value
2018-07-03T00:04:55.129Z,2.03
2018-07-03T00:09:58.321Z,1.13
2018-07-03T00:15:01.462Z,1.00
2018-07-03T00:20:05.634Z,0.93
2018-07-03T00:25:08.777Z,0.80
2018-07-03T00:30:11.935Z,0.60
2018-07-03T00:35:15.074Z,0.93
2018-07-03T00:40:18.235Z,0.87
2018-07-03T00:45:21.356Z,1.20
2018-07-03T00:50:24.500Z,0.70
2018-07-03T00:55:27.633Z,1.07
2018-07-03T01:00:33.492Z,0.57
2018-07-03T01:05:36.634Z,0.90
2018-07-03T01:10:41.835Z,0.97
2018-07-03T01:15:45.195Z,0.63
2018-07-03T01:20:48.369Z,0.50
2018-07-03T01:25:51.521Z,0.70
2018-07-03T01:30:54.658Z,0.57
2018-07-03T01:35:57.882Z,0.57
2018-07-03T01:41:01.799Z,0.50
2018-07-03T01:46:05.325Z,1.07
2018-07-03T01:51:08.471Z,0.50
2018-07-03T01:56:11.608Z,0.70
2018-07-03T02:01:14.722Z,0.50
2018-07-03T02:06:17.857Z,1.00
2018-07-03T02:11:21.202Z,0.80
2018-07-03T02:16:24.356Z,0.80
2018-07-03T02:21:27.586Z,0.97
2018-07-03T02:26:30.825Z,0.80
2018-07-03T02:31:33.962Z,0.83
2018-07-03T02:36:36.858Z,0.63
2018-07-03T02:41:41.159Z,1.07
2018-07-03T02:46:44.299Z,0.70
2018-07-03T02:51:47.429Z,1.40
2018-07-03T02:56:50.577Z,0.97
2018-07-03T03:01:55.417Z,0.70
2018-07-03T03:06:58.617Z,0.90
2018-07-03T03:12:03.969Z,1.20
2018-07-03T03:17:10.431Z,1.30
2018-07-03T03:22:13.570Z,0.93
2018-07-03T03:27:16.693Z,1.00
2018-07-03T03:32:24.066Z,1.27
2018-07-03T03:37:27.213Z,1.00
2018-07-03T03:42:30.464Z,0.97
2018-07-03T03:47:33.618Z,1.50
2018-07-03T03:52:36.849Z,1.60
2018-07-03T03:57:40.027Z,1.90
2018-07-03T04:02:43.154Z,1.50
2018-07-03T04:07:46.333Z,1.40
2018-07-03T04:12:49.489Z,1.50
2018-07-03T04:17:52.662Z,1.10
2018-07-03T04:22:55.793Z,1.40
2018-07-03T04:27:58.914Z,0.97
2018-07-03T04:33:03.017Z,1.70
2018-07-03T04:38:06.175Z,1.30
2018-07-03T04:43:09.853Z,1.70
2018-07-03T04:48:12.967Z,1.30
2018-07-03T04:53:16.151Z,1.27
2018-07-03T04:58:19.266Z,2.00
2018-07-03T05:03:22.907Z,1.87
2018-07-03T05:08:26.080Z,1.50
2018-07-03T05:13:29.231Z,2.10
2018-07-03T05:18:32.354Z,2.00
2018-07-03T05:23:35.878Z,2.03
2018-07-03T05:28:39.423Z,2.70
2018-07-03T05:33:42.571Z,2.93
2018-07-03T05:38:45.678Z,2.30
2018-07-03T05:43:48.881Z,2.43
2018-07-03T05:48:51.997Z,2.70
2018-07-03T05:53:59.338Z,2.40
2018-07-03T05:59:02.526Z,1.80
2018-07-03T06:04:05.805Z,1.70
2018-07-03T06:09:09.818Z,2.10
2018-07-03T06:14:13.045Z,1.77
2018-07-03T06:19:16.310Z,1.70
2018-07-03T06:24:19.478Z,2.03
2018-07-03T06:29:22.658Z,2.37
2018-07-03T06:34:25.838Z,2.07
2018-07-03T06:39:29.042Z,1.73
2018-07-03T06:44:32.187Z,1.80
2018-07-03T06:49:35.358Z,1.20
2018-07-03T06:54:38.594Z,1.60
2018-07-03T06:59:41.743Z,1.63
2018-07-03T07:04:44.907Z,1.70
2018-07-03T07:09:48.098Z,1.90
2018-07-03T07:14:51.254Z,1.67
2018-07-03T07:19:54.511Z,1.67
2018-07-03T07:24:57.684Z,1.77
2018-07-03T07:30:01.894Z,1.70
2018-07-03T07:35:05.050Z,1.67
2018-07-03T07:40:10.104Z,2.30
2018-07-03T07:45:13.346Z,1.33
2018-07-03T07:50:16.511Z,1.50
2018-07-03T07:55:19.653Z,1.57
2018-07-03T08:00:23.030Z,1.20
2018-07-03T08:05:27.177Z,1.70
2018-07-03T08:10:32.325Z,2.50
2018-07-03T08:15:35.610Z,1.23
2018-07-03T08:20:38.874Z,1.53
2018-07-03T08:25:43.055Z,1.13
2018-07-03T08:30:46.294Z,1.57
2018-07-03T08:35:49.591Z,1.93
2018-07-03T08:40:52.906Z,1.53
2018-07-03T08:45:56.213Z,1.33
2018-07-03T08:51:01.464Z,1.83
2018-07-03T08:56:04.994Z,1.23
2018-07-03T09:01:08.222Z,1.47
2018-07-03T09:06:11.380Z,1.00
2018-07-03T09:11:14.542Z,0.97
2018-07-03T09:16:17.737Z,1.13
2018-07-03T09:21:21.474Z,0.80
2018-07-03T09:26:24.766Z,0.90
2018-07-03T09:31:27.963Z,1.53
2018-07-03T09:36:31.174Z,1.10
2018-07-03T09:41:34.374Z,1.60
2018-07-03T09:46:37.559Z,2.47
2018-07-03T09:51:42.826Z,0.57
2018-07-03T09:56:46.009Z,0.50
2018-07-03T10:01:55.034Z,0.60
2018-07-03T10:07:01.444Z,0.50
2018-07-03T10:12:04.688Z,0.60
2018-07-03T10:17:11.663Z,0.47
2018-07-03T10:22:14.967Z,0.53
2018-07-03T10:27:18.214Z,0.40
2018-07-03T10:32:21.493Z,0.30
2018-07-03T10:37:24.670Z,0.57
2018-07-03T10:42:27.874Z,0.57
2018-07-03T10:47:33.073Z,0.50
2018-07-03T10:52:36.263Z,0.43
2018-07-03T10:57:39.546Z,0.40
2018-07-03T11:02:42.712Z,0.30
2018-07-03T11:07:45.910Z,0.40
2018-07-03T11:12:49.110Z,0.53
2018-07-03T11:17:52.295Z,0.70
2018-07-03T11:22:55.438Z,0.50
2018-07-03T11:27:58.637Z,0.60
2018-07-03T11:33:01.847Z,0.60
2018-07-03T11:38:05.050Z,0.60
2018-07-03T11:43:08.227Z,0.80
2018-07-03T11:48:11.466Z,0.70
2018-07-03T11:53:20.353Z,0.40
2018-07-03T11:58:23.678Z,0.57
2018-07-03T12:03:31.458Z,1.40
2018-07-03T12:08:34.578Z,0.80
2018-07-03T12:13:39.102Z,0.60
2018-07-03T12:18:47.781Z,0.40
2018-07-03T12:23:52.714Z,1.47
2018-07-03T12:28:55.921Z,1.00
2018-07-03T12:33:59.323Z,0.70
2018-07-03T12:39:02.487Z,0.47
2018-07-03T12:44:06.196Z,0.63
2018-07-03T12:49:09.946Z,0.80
2018-07-03T12:54:13.146Z,0.70
2018-07-03T12:59:16.494Z,0.70
2018-07-03T13:04:19.675Z,0.60
2018-07-03T13:09:22.980Z,0.90
2018-07-03T13:14:26.286Z,0.70
2018-07-03T13:19:29.708Z,0.97
2018-07-03T13:24:32.939Z,0.80
2018-07-03T13:29:36.081Z,0.90
2018-07-03T13:34:39.280Z,0.60
2018-07-03T13:39:42.558Z,0.80
2018-07-03T13:44:45.757Z,0.63
2018-07-03T13:49:49.024Z,0.87
2018-07-03T13:54:52.423Z,1.03
2018-07-03T13:59:55.833Z,2.23
2018-07-03T14:05:00.052Z,0.73
2018-07-03T14:10:03.613Z,0.97
2018-07-03T14:15:07.538Z,1.00
2018-07-03T14:20:10.952Z,0.73
2018-07-03T14:25:15.186Z,0.50
2018-07-03T14:30:18.604Z,0.53
2018-07-03T14:35:21.853Z,0.80
2018-07-03T14:40:25.051Z,0.57
2018-07-03T14:45:28.310Z,0.70
2018-07-03T14:50:31.898Z,1.07
2018-07-03T14:55:35.269Z,0.60
2018-07-03T15:00:38.564Z,1.20
2018-07-03T15:05:41.724Z,0.70
2018-07-03T15:10:44.869Z,0.77
2018-07-03T15:15:48.211Z,0.80
2018-07-03T15:20:51.422Z,0.70
2018-07-03T15:25:54.834Z,1.00
2018-07-03T15:31:00.898Z,0.90
2018-07-03T15:36:04.463Z,0.70
2018-07-03T15:41:07.667Z,0.60
2018-07-03T15:46:11.377Z,0.60
2018-07-03T15:51:14.537Z,0.80
2018-07-03T15:56:17.696Z,1.43
2018-07-03T16:01:21.013Z,0.50
2018-07-03T16:06:45.136Z,1.23
2018-07-03T16:11:48.342Z,1.63
2018-07-03T16:16:52.530Z,0.70
2018-07-03T16:21:55.779Z,0.50
2018-07-03T16:26:58.921Z,0.63
2018-07-03T16:32:02.110Z,0.70
2018-07-03T16:37:06.795Z,3.30
2018-07-03T16:42:10.002Z,0.60
2018-07-03T16:47:13.236Z,0.83
2018-07-03T16:52:16.507Z,0.63
2018-07-03T16:57:19.842Z,0.90
2018-07-03T17:02:22.957Z,0.87
2018-07-03T17:07:26.824Z,0.50
2018-07-03T17:12:30.061Z,0.60
2018-07-03T17:17:33.275Z,1.10
2018-07-03T17:22:36.526Z,0.60
2018-07-03T17:27:39.678Z,0.73
2018-07-03T17:32:42.868Z,0.73
2018-07-03T17:37:46.738Z,0.77
2018-07-03T17:43:30.949Z,0.67
2018-07-03T17:48:34.088Z,0.70
2018-07-03T17:53:37.263Z,0.83
2018-07-03T17:58:40.518Z,0.53
2018-07-03T18:03:43.794Z,0.70
2018-07-03T18:08:47.605Z,0.73
2018-07-03T18:13:50.754Z,0.67
2018-07-03T18:19:01.551Z,0.67
2018-07-03T18:24:05.194Z,1.07
2018-07-03T18:29:08.427Z,0.63
2018-07-03T18:34:11.670Z,0.73
2018-07-03T18:39:14.817Z,0.50
2018-07-03T18:44:17.942Z,0.60
2018-07-03T18:49:21.183Z,0.70
2018-07-03T18:54:24.438Z,0.87
2018-07-03T18:59:27.570Z,1.70
2018-07-03T19:04:30.762Z,1.27
2018-07-03T19:09:33.998Z,0.80
2018-07-03T19:14:37.270Z,1.10
2018-07-03T19:19:40.426Z,1.33
2018-07-03T19:24:43.643Z,1.20
2018-07-03T19:29:46.938Z,1.00
2018-07-03T19:34:50.173Z,1.10
2018-07-03T19:39:53.341Z,1.37
2018-07-03T19:44:56.595Z,1.17
2018-07-03T19:50:01.044Z,1.67
2018-07-03T19:55:04.167Z,1.83
2018-07-03T20:00:08.217Z,1.40
2018-07-03T20:05:16.764Z,1.60
2018-07-03T20:10:19.971Z,1.63
2018-07-03T20:15:23.439Z,1.20
2018-07-03T20:20:26.670Z,1.37
2018-07-03T20:25:29.931Z,1.50
2018-07-03T20:30:33.079Z,1.53
2018-07-03T20:35:37.284Z,1.60
2018-07-03T20:40:58.960Z,1.80
2018-07-03T20:46:02.254Z,1.80
2018-07-03T20:51:05.621Z,1.50
2018-07-03T20:56:08.777Z,1.80
2018-07-03T21:01:11.984Z,1.70
2018-07-03T21:06:15.724Z,1.97
2018-07-03T21:11:18.910Z,1.93
2018-07-03T21:16:22.179Z,2.07
2018-07-03T21:21:25.359Z,1.70
2018-07-03T21:26:28.667Z,2.03
2018-07-03T21:31:32.943Z,1.80
2018-07-03T21:36:36.103Z,1.10
2018-07-03T21:41:39.292Z,1.40
2018-07-03T21:46:42.978Z,1.43
2018-07-03T21:51:46.206Z,1.20
2018-07-03T21:56:49.380Z,1.47
2018-07-03T22:01:52.541Z,1.30
2018-07-03T22:06:55.951Z,0.97
2018-07-03T22:11:59.182Z,1.27
2018-07-03T22:17:04.604Z,1.43
2018-07-03T22:22:08.382Z,1.30
2018-07-03T22:27:11.929Z,1.23
2018-07-03T22:32:15.107Z,1.10
2018-07-03T22:37:18.274Z,1.43
2018-07-03T22:42:21.572Z,1.80
2018-07-03T22:47:25.818Z,1.70
2018-07-03T22:52:29.053Z,1.90
2018-07-03T22:57:32.285Z,1.80
2018-07-03T23:02:35.443Z,1.93
2018-07-03T23:07:38.682Z,1.50
2018-07-03T23:12:41.864Z,2.00
2018-07-03T23:17:45.010Z,2.03
2018-07-03T23:22:49.436Z,2.17
2018-07-03T23:27:52.589Z,2.47
2018-07-03T23:32:55.734Z,2.40
2018-07-03T23:37:58.882Z,1.90
2018-07-03T23:43:02.143Z,2.20
2018-07-03T23:48:16.522Z,2.07
2018-07-03T23:53:31.090Z,2.67
2018-07-03T23:58:45.798Z,2.37
